createdAt,value
2022-10-18T00:00:00.821Z,16.06
2022-10-18T00:05:09.241Z,16.06
2022-10-18T00:10:17.752Z,16.12
2022-10-18T00:15:26.840Z,16.25
2022-10-18T00:20:35.325Z,16.12
2022-10-18T00:25:44.471Z,16.12
2022-10-18T00:30:54.212Z,16.25
2022-10-18T00:36:03.989Z,16.25
2022-10-18T00:41:13.704Z,16.19
2022-10-18T00:46:22.203Z,16.19
2022-10-18T00:51:31.964Z,16.12
2022-10-18T00:56:44.524Z,15.94
2022-10-18T01:02:02.156Z,16
2022-10-18T01:07:19.555Z,15.88
2022-10-18T01:12:36.215Z,15.88
2022-10-18T01:17:55.409Z,15.62
2022-10-18T01:23:11.852Z,15.62
2022-10-18T01:28:29.173Z,15.62
2022-10-18T01:33:46.614Z,15.56
2022-10-18T01:38:11.350Z,15.5
2022-10-18T01:43:21.081Z,15.62
2022-10-18T01:48:30.201Z,15.62
2022-10-18T01:53:39.320Z,15.62
2022-10-18T01:58:48.442Z,15.56
2022-10-18T02:03:57.596Z,15.69
2022-10-18T02:09:06.043Z,15.88
2022-10-18T02:14:15.806Z,15.94
2022-10-18T02:24:34.038Z,15.88
2022-10-18T02:29:43.832Z,15.81
2022-10-18T02:34:52.280Z,15.88
2022-10-18T02:40:02.059Z,15.81
2022-10-18T02:45:11.801Z,15.75
2022-10-18T02:50:20.281Z,15.81
2022-10-18T02:55:30.713Z,15.62
2022-10-18T03:00:39.158Z,15.69
2022-10-18T03:05:48.285Z,15.75
2022-10-18T03:11:33.303Z,15.81
2022-10-18T03:16:42.361Z,15.81
2022-10-18T03:21:50.842Z,15.75
2022-10-18T03:26:59.962Z,15.75
2022-10-18T03:32:07.816Z,15.88
2022-10-18T03:37:16.930Z,15.81
2022-10-18T03:42:25.392Z,15.88
2022-10-18T03:47:33.880Z,15.81
2022-10-18T03:52:46.534Z,15.75
2022-10-18T03:58:02.124Z,15.81
2022-10-18T04:03:20.370Z,15.81
2022-10-18T04:08:09.726Z,15.88
2022-10-18T04:13:54.612Z,15.94
2022-10-18T04:19:11.888Z,15.88
2022-10-18T04:23:51.911Z,15.94
2022-10-18T04:29:08.121Z,15.81
2022-10-18T04:34:22.976Z,15.88
2022-10-18T04:39:38.459Z,15.88
2022-10-18T04:44:54.623Z,15.94
2022-10-18T04:49:25.269Z,15.81
2022-10-18T04:54:33.724Z,15.88
2022-10-18T04:59:42.212Z,15.88
2022-10-18T05:04:50.042Z,15.88
2022-10-18T05:09:59.193Z,15.88
2022-10-18T05:15:08.920Z,15.88
2022-10-18T05:20:18.720Z,15.81
2022-10-18T05:25:29.085Z,15.81
2022-10-18T05:30:38.873Z,15.88
2022-10-18T05:35:47.324Z,15.88
2022-10-18T05:40:56.425Z,15.88
2022-10-18T05:46:04.949Z,15.88
2022-10-18T05:51:13.388Z,15.94
2022-10-18T05:56:24.478Z,15.81
2022-10-18T06:01:34.202Z,15.94
2022-10-18T06:06:43.992Z,15.94
2022-10-18T06:11:52.426Z,15.94
2022-10-18T06:17:00.922Z,15.69
2022-10-18T06:22:10.040Z,15.75
2022-10-18T06:27:19.163Z,15.81
2022-10-18T06:32:27.641Z,15.88
2022-10-18T06:37:36.813Z,15.88
2022-10-18T06:42:55.286Z,16
2022-10-18T06:47:54.369Z,15.94
2022-10-18T06:53:06.759Z,15.94
2022-10-18T06:58:23.087Z,15.81
2022-10-18T07:03:39.729Z,15.88
2022-10-18T07:08:58.816Z,15.88
2022-10-18T07:14:25.780Z,15.88
2022-10-18T07:18:51.005Z,15.81
2022-10-18T07:24:00.766Z,15.81
2022-10-18T07:29:11.308Z,16
2022-10-18T07:34:20.923Z,16
2022-10-18T07:39:30.046Z,16
2022-10-18T07:44:39.163Z,16.12
2022-10-18T07:49:48.957Z,16.06
2022-10-18T07:54:58.048Z,16
2022-10-18T08:00:07.788Z,16.25
2022-10-18T08:05:17.700Z,16.38
2022-10-18T08:10:27.997Z,16.31
2022-10-18T08:15:38.359Z,16.44
2022-10-18T08:20:59.518Z,16.5
2022-10-18T08:25:57.882Z,16.44
2022-10-18T08:31:06.371Z,16.31
2022-10-18T08:36:16.864Z,16.31
2022-10-18T08:41:33.022Z,16.38
2022-10-18T08:46:49.192Z,16.38
2022-10-18T08:52:05.983Z,16.44
2022-10-18T08:57:20.230Z,16.31
2022-10-18T09:02:02.381Z,16.31
2022-10-18T09:07:51.939Z,16.25
2022-10-18T09:12:21.891Z,16.38
2022-10-18T09:17:32.310Z,16.5
2022-10-18T09:22:45.605Z,16.5
2022-10-18T09:28:02.430Z,16.38
2022-10-18T09:43:50.934Z,16.06
2022-10-18T09:49:07.645Z,16.31
2022-10-18T09:54:23.848Z,16.38
2022-10-18T09:59:41.158Z,16.44
2022-10-18T10:04:59.395Z,16.56
2022-10-18T10:10:33.491Z,16.5
2022-10-18T10:15:00.936Z,16.56
2022-10-18T10:19:27.269Z,16.62
2022-10-18T10:24:44.371Z,16.62
2022-10-18T10:29:45.783Z,16.69
2022-10-18T10:35:21.781Z,16.62
2022-10-18T10:40:28.984Z,16.69
2022-10-18T10:45:49.065Z,16.81
2022-10-18T10:50:16.437Z,16.69
2022-10-18T10:55:35.765Z,17
2022-10-18T11:00:34.684Z,17.19
2022-10-18T11:05:44.479Z,17.31
2022-10-18T11:10:54.216Z,17.25
2022-10-18T11:16:05.272Z,17.44
2022-10-18T11:19:31.965Z,17.44
2022-10-18T11:25:39.960Z,17.62
2022-10-18T11:26:06.983Z,17.62
2022-10-18T11:31:15.985Z,17.56
2022-10-18T11:37:33.360Z,17.44
2022-10-18T11:41:22.215Z,17.44
2022-10-18T11:46:31.164Z,17.56
2022-10-18T11:58:07.493Z,17.56
2022-10-18T12:17:56.237Z,17.62
2022-10-18T12:23:06.361Z,17.62
2022-10-18T12:31:25.011Z,17.94
2022-10-18T12:43:38.838Z,17.81
2022-10-18T12:48:04.425Z,17.88
2022-10-18T12:54:11.574Z,17.69
2022-10-18T12:59:29.427Z,17.62
2022-10-18T13:04:46.783Z,17.56
2022-10-18T13:25:56.864Z,17.44
2022-10-18T13:30:23.187Z,17.62
2022-10-18T13:34:03.644Z,17.44
2022-10-18T13:39:14.099Z,17.62
2022-10-18T13:44:23.820Z,17.62
2022-10-18T13:49:32.927Z,17.5
2022-10-18T13:54:42.077Z,17.38
2022-10-18T13:59:54.396Z,17.25
2022-10-18T14:05:30.375Z,17.25
2022-10-18T14:11:02.178Z,17.31
2022-10-18T14:15:47.962Z,17.31
2022-10-18T14:21:14.667Z,17.44
2022-10-18T14:26:06.849Z,17.31
2022-10-18T14:31:15.323Z,17.31
2022-10-18T14:36:24.450Z,17.19
2022-10-18T14:41:33.573Z,17.25
2022-10-18T14:46:42.692Z,17.19
2022-10-18T14:51:53.085Z,17.19
2022-10-18T14:57:02.223Z,17.06
2022-10-18T15:02:10.691Z,17
2022-10-18T15:07:19.803Z,17.06
2022-10-18T15:12:45.720Z,16.88
2022-10-18T15:17:39.323Z,16.88
2022-10-18T15:22:49.912Z,16.88
2022-10-18T15:27:58.236Z,16.81
2022-10-18T15:33:07.960Z,16.75
2022-10-18T15:38:17.749Z,16.69
2022-10-18T15:43:27.484Z,16.62
2022-10-18T15:48:36.613Z,16.69
2022-10-18T15:53:46.368Z,16.56
2022-10-18T15:58:57.985Z,16.62
2022-10-18T16:04:05.241Z,16.38
2022-10-18T16:09:15.641Z,16.38
2022-10-18T16:14:30.178Z,16.38
2022-10-18T16:19:45.666Z,16
2022-10-18T16:25:03.443Z,16
2022-10-18T16:30:16.060Z,15.94
2022-10-18T16:35:35.437Z,15.75
2022-10-18T16:40:50.287Z,15.81
2022-10-18T16:46:06.462Z,15.75
2022-10-18T16:51:23.262Z,15.75
2022-10-18T16:56:40.702Z,15.75
2022-10-18T17:01:55.712Z,15.56
2022-10-18T17:06:20.463Z,15.44
2022-10-18T17:11:10.842Z,15.5
2022-10-18T17:16:20.718Z,15.31
2022-10-18T17:21:29.721Z,15.12
2022-10-18T17:26:57.874Z,15.12
2022-10-18T17:31:51.289Z,14.94
2022-10-18T17:37:17.570Z,15
2022-10-18T17:42:26.039Z,14.88
2022-10-18T17:47:39.738Z,15
2022-10-18T17:52:57.052Z,14.88
2022-10-18T17:58:11.416Z,14.81
2022-10-18T18:03:29.649Z,14.69
2022-10-18T18:08:42.491Z,14.69
2022-10-18T18:13:58.630Z,14.56
2022-10-18T18:19:13.504Z,14.44
2022-10-18T18:23:40.918Z,14.44
2022-10-18T18:28:50.901Z,14.31
2022-10-18T18:33:59.833Z,14.12
2022-10-18T18:39:07.640Z,14
2022-10-18T18:44:16.762Z,13.94
2022-10-18T18:49:27.162Z,14
2022-10-18T18:54:35.640Z,14
2022-10-18T18:59:44.769Z,13.94
2022-10-18T19:04:54.530Z,13.88
2022-10-18T19:10:03.005Z,13.75
2022-10-18T19:15:10.845Z,13.75
2022-10-18T19:20:19.995Z,13.75
2022-10-18T19:25:30.363Z,13.69
2022-10-18T19:30:40.762Z,13.75
2022-10-18T19:35:51.160Z,13.62
2022-10-18T19:40:59.641Z,13.31
2022-10-18T19:46:08.766Z,13.25
2022-10-18T19:51:25.281Z,13.31
2022-10-18T19:56:28.924Z,13.19
2022-10-18T20:01:38.841Z,13.19
2022-10-18T20:06:47.164Z,13.25
2022-10-18T20:11:55.650Z,13.06
2022-10-18T20:17:05.398Z,13.19
2022-10-18T20:22:14.519Z,13.06
2022-10-18T20:27:30.455Z,12.75
2022-10-18T20:32:46.281Z,12.56
2022-10-18T20:38:03.734Z,12.5
2022-10-18T20:43:21.163Z,12.5
2022-10-18T20:48:38.609Z,12.62
2022-10-18T20:53:10.551Z,12.31
2022-10-18T20:58:20.281Z,12.38
2022-10-18T21:03:30.078Z,12.5
2022-10-18T21:08:39.801Z,12.56
2022-10-18T21:13:50.855Z,12.25
2022-10-18T21:19:05.858Z,12.25
2022-10-18T21:24:20.717Z,12.19
2022-10-18T21:29:36.283Z,12.12
2022-10-18T21:34:52.414Z,12.12
2022-10-18T21:40:10.538Z,12
2022-10-18T21:45:25.341Z,11.75
2022-10-18T21:50:40.319Z,11.88
2022-10-18T21:55:05.719Z,12
2022-10-18T22:00:16.478Z,11.81
2022-10-18T22:05:24.616Z,11.62
2022-10-18T22:10:32.444Z,11.88
2022-10-18T22:15:41.600Z,11.75
2022-10-18T22:20:50.686Z,11.75
2022-10-18T22:25:59.806Z,11.69
2022-10-18T22:31:09.565Z,11.62
2022-10-18T22:36:18.841Z,11.5
2022-10-18T22:41:28.438Z,11.69
2022-10-18T22:46:37.562Z,11.56
2022-10-18T22:51:47.974Z,11.56
2022-10-18T22:56:56.440Z,11.56
2022-10-18T23:02:04.920Z,11.38
2022-10-18T23:07:13.406Z,11.62
2022-10-18T23:12:22.519Z,11.62
2022-10-18T23:17:32.466Z,11.75
2022-10-18T23:22:40.793Z,11.62
2022-10-18T23:27:49.883Z,11.62
2022-10-18T23:32:58.362Z,11.44
2022-10-18T23:38:07.517Z,11.38
2022-10-18T23:43:26.933Z,11.31
2022-10-18T23:48:45.181Z,11.38
2022-10-18T23:54:01.318Z,11.38
2022-10-18T23:59:18.772Z,11.44
